Elkhorn City, KY (41522)

1:40 AM EDT on July 05, 2015 (GMT -0400)
Ramey Flats | | Change Station
CLOSE
Current Station
Personal Weather Station
Location: Clintwood, VA
Elevation: 1795 ft
Nearby Weather Stations
Active Advisory: Flash Flood Watch Active Notice: Record Report

Elev 1795 ft 37.21 °N, 82.44 °W | Updated 27 seconds ago

Partly Cloudy
Partly Cloudy
66.5 °F
Feels Like 66.5 °F
N
0.0
Wind Variable Wind from SSE
Gusts 1.0 mph

Today
High -- | Low -- °F
--% Chance of Precip.
Yesterday
High -- | Low -- °F
Precip. -- in
6:14 AM 8:53 PM
Waning Gibbous, 87% visible
Pressure 30.15 in
Visibility 10.0 miles
Clouds Overcast 6500 ft
Dew Point 66 °F
Humidity 98%
Rainfall 0.00 in
Snow Depth Not available.
UV 0 out of 12
Pollen .50 out of 12
Air Quality Not available.
Flu Activity Not available.
METAR KLNP 050515Z AUTO 15004KT 10SM OVC065 19/19 A3015 RMK AO2

More Conditions Fewer Conditions

Pressure 30.15 in
Visibility 10.0 miles
Clouds Overcast 6500 ft
Dew Point 66 °F
Humidity 98%
Rainfall 0.00 in
Snow Depth Not available.
UV 0 out of 12
Pollen .50 out of 12
Air Quality Not available.
Flu Activity Not available.
METAR KLNP 050515Z AUTO 15004KT 10SM OVC065 19/19 A3015 RMK AO2

More Conditions Fewer Conditions

10-Day Weather Forecast

×

Almanac

Astronomy

Jul. 05, 2015 Rise Set
Actual Time
Civil Twilight
Nautical Twilight
Astronomical Twilight
Moon
Length of Visible Light
Length of Day
Tomorrow will be .
, % of the Moon is Illuminated

Today's Extremes

State Highs State Lows

Community

WunderPhotos

Upload Photos

1,835,203 photos uploaded!

WunderBlogs® & News

Nearby

Air Quality

  Air Quality AQ Index Pollutant
Not available.

Snow Depth

Station Depth Elevation

Earthquake Activity

City Distance Mag. Time & Date
Minimum magnitude displayed is 2.5.

Coastal Water Temperatures

Place Temperature

Stations

Nearby Weather Stations

Station Location Temp. Windchill Dew Point Humidity Wind Precip. Elev Updated Type
                   
Flash Flood Watch
Statement as of 12:56 AM EDT on July 05, 2015

... Flash Flood Watch in effect through Sunday tonight...

The National Weather Service in Jackson has issued a

* Flash Flood Watch for portions of northeast Kentucky and
southeast Kentucky... including the following Kentucky
counties... Bell... Breathitt... Floyd... Harlan... Knott...
Leslie... Letcher... Magoffin... Marting... Perry... and Pike.

* It is in effect through Sunday night.

* Slow moving showers and thunderstorms are expected to bring
locally heavy rainfall on top of already wet ground.

Precautionary/preparedness actions...

A Flash Flood Watch means that conditions may develop that lead
to flash flooding. Flash flooding is a very dangerous situation.

You should monitor later forecasts and be prepared to take action
should flash flood warnings be issued.



Hal